sensor_id;sensor_type;location;lat;lon;timestamp;pressure;altitude;pressure_sealevel;temperature;humidity
11114;BME280;5610;52.154;9.198;2024-02-28T00:00:12;101090.09;;;2.34;100.00
11114;BME280;5610;52.154;9.198;2024-02-28T00:02:57;101084.91;;;2.29;100.00
11114;BME280;5610;52.154;9.198;2024-02-28T00:05:42;101079.63;;;2.31;100.00
11114;BME280;5610;52.154;9.198;2024-02-28T00:08:29;101079.59;;;2.32;100.00
11114;BME280;5610;52.154;9.198;2024-02-28T00:11:14;101083.03;;;2.36;100.00
11114;BME280;5610;52.154;9.198;2024-02-28T00:14:00;101085.63;;;2.37;100.00
11114;BME280;5610;52.154;9.198;2024-02-28T00:16:46;101091.88;;;2.32;100.00
11114;BME280;5610;52.154;9.198;2024-02-28T00:19:32;101092.03;;;2.24;100.00
11114;BME280;5610;52.154;9.198;2024-02-28T00:22:17;101084.22;;;2.21;100.00
11114;BME280;5610;52.154;9.198;2024-02-28T00:25:03;101083.34;;;2.20;100.00
11114;BME280;5610;52.154;9.198;2024-02-28T00:27:50;101084.22;;;2.21;100.00
11114;BME280;5610;52.154;9.198;2024-02-28T00:30:36;101080.00;;;2.12;100.00
11114;BME280;5610;52.154;9.198;2024-02-28T00:33:22;101081.19;;;1.98;100.00
11114;BME280;5610;52.154;9.198;2024-02-28T00:36:07;101082.66;;;2.11;100.00
11114;BME280;5610;52.154;9.198;2024-02-28T00:38:52;101081.03;;;2.05;100.00
11114;BME280;5610;52.154;9.198;2024-02-28T00:41:37;101087.13;;;2.07;100.00
11114;BME280;5610;52.154;9.198;2024-02-28T00:44:22;101097.00;;;1.95;100.00
11114;BME280;5610;52.154;9.198;2024-02-28T00:47:08;101095.22;;;1.95;100.00
11114;BME280;5610;52.154;9.198;2024-02-28T00:49:54;101096.94;;;1.98;100.00
11114;BME280;5610;52.154;9.198;2024-02-28T00:52:39;101096.06;;;1.97;100.00
11114;BME280;5610;52.154;9.198;2024-02-28T00:55:24;101090.75;;;2.00;100.00
11114;BME280;5610;52.154;9.198;2024-02-28T00:58:10;101090.78;;;1.97;100.00
11114;BME280;5610;52.154;9.198;2024-02-28T01:00:55;101089.13;;;1.93;100.00
11114;BME280;5610;52.154;9.198;2024-02-28T01:03:42;101089.22;;;1.88;100.00
11114;BME280;5610;52.154;9.198;2024-02-28T01:06:27;101092.69;;;1.90;100.00
11114;BME280;5610;52.154;9.198;2024-02-28T01:09:12;101100.78;;;1.80;100.00
11114;BME280;5610;52.154;9.198;2024-02-28T01:11:58;101105.00;;;1.87;100.00
11114;BME280;5610;52.154;9.198;2024-02-28T01:14:43;101096.34;;;1.83;100.00
11114;BME280;5610;52.154;9.198;2024-02-28T01:17:28;101091.94;;;1.82;100.00
11114;BME280;5610;52.154;9.198;2024-02-28T01:20:14;101098.81;;;1.89;100.00
11114;BME280;5610;52.154;9.198;2024-02-28T01:23:00;101101.44;;;1.89;100.00
11114;BME280;5610;52.154;9.198;2024-02-28T01:25:45;101102.44;;;1.85;100.00
11114;BME280;5610;52.154;9.198;2024-02-28T01:28:30;101098.25;;;1.74;100.00
11114;BME280;5610;52.154;9.198;2024-02-28T01:31:15;101097.66;;;1.58;100.00
11114;BME280;5610;52.154;9.198;2024-02-28T01:34:01;101104.72;;;1.56;100.00
11114;BME280;5610;52.154;9.198;2024-02-28T01:36:47;101107.34;;;1.54;100.00
11114;BME280;5610;52.154;9.198;2024-02-28T01:39:33;101092.44;;;1.55;100.00
11114;BME280;5610;52.154;9.198;2024-02-28T01:42:18;101090.72;;;1.54;100.00
11114;BME280;5610;52.154;9.198;2024-02-28T01:45:03;101086.25;;;1.59;100.00
11114;BME280;5610;52.154;9.198;2024-02-28T01:47:49;101083.56;;;1.63;100.00
11114;BME280;5610;52.154;9.198;2024-02-28T01:50:35;101087.84;;;1.68;100.00
11114;BME280;5610;52.154;9.198;2024-02-28T01:53:23;101085.28;;;1.64;100.00
11114;BME280;5610;52.154;9.198;2024-02-28T01:56:08;101098.38;;;1.66;100.00
11114;BME280;5610;52.154;9.198;2024-02-28T01:58:55;101093.31;;;1.57;100.00
11114;BME280;5610;52.154;9.198;2024-02-28T02:01:41;101084.72;;;1.46;100.00
11114;BME280;5610;52.154;9.198;2024-02-28T02:04:27;101087.41;;;1.43;100.00
11114;BME280;5610;52.154;9.198;2024-02-28T02:07:12;101080.41;;;1.43;100.00
11114;BME280;5610;52.154;9.198;2024-02-28T02:09:59;101075.13;;;1.45;100.00
11114;BME280;5610;52.154;9.198;2024-02-28T02:12:44;101079.41;;;1.50;100.00
11114;BME280;5610;52.154;9.198;2024-02-28T02:15:30;101074.94;;;1.55;100.00
11114;BME280;5610;52.154;9.198;2024-02-28T02:18:15;101076.63;;;1.59;100.00
11114;BME280;5610;52.154;9.198;2024-02-28T02:21:04;101077.47;;;1.60;100.00
11114;BME280;5610;52.154;9.198;2024-02-28T02:23:51;101082.72;;;1.60;100.00
11114;BME280;5610;52.154;9.198;2024-02-28T02:26:36;101084.56;;;1.55;100.00
11114;BME280;5610;52.154;9.198;2024-02-28T02:29:21;101092.63;;;1.44;100.00
11114;BME280;5610;52.154;9.198;2024-02-28T02:32:07;101089.19;;;1.41;100.00
11114;BME280;5610;52.154;9.198;2024-02-28T02:34:52;101079.75;;;1.30;100.00
11114;BME280;5610;52.154;9.198;2024-02-28T02:37:37;101084.28;;;1.21;100.00
11114;BME280;5610;52.154;9.198;2024-02-28T02:40:24;101079.03;;;1.21;100.00
11114;BME280;5610;52.154;9.198;2024-02-28T02:43:09;101084.28;;;1.21;100.00
11114;BME280;5610;52.154;9.198;2024-02-28T02:45:54;101075.50;;;1.22;100.00
11114;BME280;5610;52.154;9.198;2024-02-28T02:48:39;101083.41;;;1.19;100.00
11114;BME280;5610;52.154;9.198;2024-02-28T02:51:24;101091.38;;;1.14;100.00
11114;BME280;5610;52.154;9.198;2024-02-28T02:54:10;101086.09;;;1.16;100.00
11114;BME280;5610;52.154;9.198;2024-02-28T02:56:57;101094.06;;;1.09;100.00
11114;BME280;5610;52.154;9.198;2024-02-28T02:59:42;101094.22;;;1.00;100.00
11114;BME280;5610;52.154;9.198;2024-02-28T03:02:27;101096.81;;;1.02;100.00
11114;BME280;5610;52.154;9.198;2024-02-28T03:05:12;101089.78;;;1.04;100.00
11114;BME280;5610;52.154;9.198;2024-02-28T03:07:58;101089.66;;;1.13;100.00
11114;BME280;5610;52.154;9.198;2024-02-28T03:10:43;101094.78;;;1.21;100.00
11114;BME280;5610;52.154;9.198;2024-02-28T03:13:29;101078.94;;;1.25;100.00
11114;BME280;5610;52.154;9.198;2024-02-28T03:16:14;101095.53;;;1.29;100.00
11114;BME280;5610;52.154;9.198;2024-02-28T03:18:59;101090.22;;;1.32;100.00
11114;BME280;5610;52.154;9.198;2024-02-28T03:21:44;101100.75;;;1.30;100.00
11114;BME280;5610;52.154;9.198;2024-02-28T03:24:30;101106.03;;;1.29;100.00
11114;BME280;5610;52.154;9.198;2024-02-28T03:27:14;101104.28;;;1.28;100.00
11114;BME280;5610;52.154;9.198;2024-02-28T03:30:01;101109.56;;;1.25;100.00
11114;BME280;5610;52.154;9.198;2024-02-28T03:32:47;101114.91;;;1.20;100.00
11114;BME280;5610;52.154;9.198;2024-02-28T03:35:32;101118.53;;;1.13;100.00
11114;BME280;5610;52.154;9.198;2024-02-28T03:38:17;101120.25;;;1.14;100.00
11114;BME280;5610;52.154;9.198;2024-02-28T03:41:02;101111.50;;;1.12;100.00
11114;BME280;5610;52.154;9.198;2024-02-28T03:43:48;101124.63;;;1.12;100.00
11114;BME280;5610;52.154;9.198;2024-02-28T03:46:34;101122.03;;;1.14;100.00
11114;BME280;5610;52.154;9.198;2024-02-28T03:49:19;101124.75;;;1.04;100.00
11114;BME280;5610;52.154;9.198;2024-02-28T03:52:04;101127.38;;;1.04;100.00
11114;BME280;5610;52.154;9.198;2024-02-28T03:54:49;101120.34;;;1.08;100.00
11114;BME280;5610;52.154;9.198;2024-02-28T03:57:35;101123.81;;;1.10;100.00
11114;BME280;5610;52.154;9.198;2024-02-28T04:00:20;101123.06;;;1.02;100.00
11114;BME280;5610;52.154;9.198;2024-02-28T04:03:07;101130.91;;;1.03;100.00
11114;BME280;5610;52.154;9.198;2024-02-28T04:05:52;101132.50;;;1.12;100.00
11114;BME280;5610;52.154;9.198;2024-02-28T04:08:37;101122.88;;;1.14;100.00
11114;BME280;5610;52.154;9.198;2024-02-28T04:11:22;101108.88;;;1.15;100.00
11114;BME280;5610;52.154;9.198;2024-02-28T04:14:07;101122.03;;;1.14;100.00
11114;BME280;5610;52.154;9.198;2024-02-28T04:16:52;101108.81;;;1.18;100.00
11114;BME280;5610;52.154;9.198;2024-02-28T04:19:39;101110.47;;;1.24;100.00
11114;BME280;5610;52.154;9.198;2024-02-28T04:22:24;101121.81;;;1.26;100.00
11114;BME280;5610;52.154;9.198;2024-02-28T04:25:09;101115.94;;;1.10;100.00
11114;BME280;5610;52.154;9.198;2024-02-28T04:27:55;101116.81;;;1.09;100.00
11114;BME280;5610;52.154;9.198;2024-02-28T04:30:41;101130.78;;;1.11;100.00
11114;BME280;5610;52.154;9.198;2024-02-28T04:33:26;101142.16;;;1.13;100.00
11114;BME280;5610;52.154;9.198;2024-02-28T04:36:13;101137.78;;;1.10;100.00
11114;BME280;5610;52.154;9.198;2024-02-28T04:38:59;101154.38;;;1.14;100.00
11114;BME280;5610;52.154;9.198;2024-02-28T04:41:45;101158.69;;;1.17;100.00
11114;BME280;5610;52.154;9.198;2024-02-28T04:44:30;101159.47;;;1.23;100.00
11114;BME280;5610;52.154;9.198;2024-02-28T04:47:15;101156.84;;;1.23;100.00
11114;BME280;5610;52.154;9.198;2024-02-28T04:50:00;101160.28;;;1.28;100.00
11114;BME280;5610;52.154;9.198;2024-02-28T04:52:47;101160.28;;;1.28;100.00
11114;BME280;5610;52.154;9.198;2024-02-28T04:55:32;101166.38;;;1.30;100.00
11114;BME280;5610;52.154;9.198;2024-02-28T04:58:18;101169.72;;;1.42;100.00
11114;BME280;5610;52.154;9.198;2024-02-28T05:01:03;101172.28;;;1.45;100.00
11114;BME280;5610;52.154;9.198;2024-02-28T05:03:48;101172.28;;;1.45;100.00
11114;BME280;5610;52.154;9.198;2024-02-28T05:06:33;101177.53;;;1.45;100.00
11114;BME280;5610;52.154;9.198;2024-02-28T05:09:20;101190.66;;;1.45;100.00
11114;BME280;5610;52.154;9.198;2024-02-28T05:12:06;101191.53;;;1.45;100.00
11114;BME280;5610;52.154;9.198;2024-02-28T05:14:52;101186.34;;;1.42;100.00
11114;BME280;5610;52.154;9.198;2024-02-28T05:17:37;101183.78;;;1.37;100.00
11114;BME280;5610;52.154;9.198;2024-02-28T05:20:23;101195.13;;;1.38;100.00
11114;BME280;5610;52.154;9.198;2024-02-28T05:23:08;101197.81;;;1.33;100.00
11114;BME280;5610;52.154;9.198;2024-02-28T05:25:55;101208.44;;;1.27;100.00
11114;BME280;5610;52.154;9.198;2024-02-28T05:28:41;101208.50;;;1.23;100.00
11114;BME280;5610;52.154;9.198;2024-02-28T05:31:26;101213.84;;;1.15;100.00
11114;BME280;5610;52.154;9.198;2024-02-28T05:34:12;101214.84;;;1.06;100.00
11114;BME280;5610;52.154;9.198;2024-02-28T05:36:57;101210.47;;;1.07;100.00
11114;BME280;5610;52.154;9.198;2024-02-28T05:39:44;101220.16;;;1.02;100.00
11114;BME280;5610;52.154;9.198;2024-02-28T05:42:30;101221.97;;;0.95;100.00
11114;BME280;5610;52.154;9.198;2024-02-28T05:45:15;101239.47;;;0.95;100.00
11114;BME280;5610;52.154;9.198;2024-02-28T05:48:01;101236.91;;;0.92;100.00
11114;BME280;5610;52.154;9.198;2024-02-28T05:50:46;101239.59;;;0.87;100.00
11114;BME280;5610;52.154;9.198;2024-02-28T05:53:31;101239.59;;;0.84;100.00
11114;BME280;5610;52.154;9.198;2024-02-28T05:56:19;101241.38;;;0.82;100.00
11114;BME280;5610;52.154;9.198;2024-02-28T05:59:06;101241.44;;;0.77;100.00
11114;BME280;5610;52.154;9.198;2024-02-28T06:01:52;101253.69;;;0.77;100.00
11114;BME280;5610;52.154;9.198;2024-02-28T06:04:37;101251.94;;;0.79;100.00
11114;BME280;5610;52.154;9.198;2024-02-28T06:07:22;101255.31;;;0.87;100.00
11114;BME280;5610;52.154;9.198;2024-02-28T06:10:08;101247.31;;;0.98;100.00
11114;BME280;5610;52.154;9.198;2024-02-28T06:12:54;101241.09;;;1.06;100.00
11114;BME280;5610;52.154;9.198;2024-02-28T06:15:40;101244.41;;;1.19;100.00
11114;BME280;5610;52.154;9.198;2024-02-28T06:18:26;101251.22;;;1.32;100.00
11114;BME280;5610;52.154;9.198;2024-02-28T06:21:12;101254.53;;;1.47;100.00
11114;BME280;5610;52.154;9.198;2024-02-28T06:23:57;101257.91;;;1.55;100.00
11114;BME280;5610;52.154;9.198;2024-02-28T06:26:43;101256.97;;;1.59;100.00
11114;BME280;5610;52.154;9.198;2024-02-28T06:29:28;101263.94;;;1.63;100.00
11114;BME280;5610;52.154;9.198;2024-02-28T06:32:14;101262.06;;;1.71;100.00
11114;BME280;5610;52.154;9.198;2024-02-28T06:34:59;101270.78;;;1.73;100.00
11114;BME280;5610;52.154;9.198;2024-02-28T06:37:45;101268.09;;;1.78;100.00
11114;BME280;5610;52.154;9.198;2024-02-28T06:40:34;101277.66;;;1.82;100.00
11114;BME280;5610;52.154;9.198;2024-02-28T06:43:19;101278.47;;;1.85;100.00
11114;BME280;5610;52.154;9.198;2024-02-28T06:46:04;101290.63;;;1.92;100.00
11114;BME280;5610;52.154;9.198;2024-02-28T06:48:51;101281.78;;;1.97;100.00
11114;BME280;5610;52.154;9.198;2024-02-28T06:51:36;101286.09;;;2.02;100.00
11114;BME280;5610;52.154;9.198;2024-02-28T06:54:21;101284.22;;;2.09;100.00
11114;BME280;5610;52.154;9.198;2024-02-28T06:57:07;101282.41;;;2.14;100.00
11114;BME280;5610;52.154;9.198;2024-02-28T06:59:52;101282.28;;;2.22;100.00
11114;BME280;5610;52.154;9.198;2024-02-28T07:02:37;101277.81;;;2.25;100.00
11114;BME280;5610;52.154;9.198;2024-02-28T07:05:24;101279.44;;;2.32;100.00
11114;BME280;5610;52.154;9.198;2024-02-28T07:08:09;101282.91;;;2.36;100.00
11114;BME280;5610;52.154;9.198;2024-02-28T07:10:55;101295.91;;;2.43;100.00
11114;BME280;5610;52.154;9.198;2024-02-28T07:13:40;101287.06;;;2.49;100.00
11114;BME280;5610;52.154;9.198;2024-02-28T07:16:25;101297.44;;;2.57;100.00
11114;BME280;5610;52.154;9.198;2024-02-28T07:19:11;101291.09;;;2.68;100.00
11114;BME280;5610;52.154;9.198;2024-02-28T07:21:58;101284.03;;;2.70;100.00
11114;BME280;5610;52.154;9.198;2024-02-28T07:24:43;101297.91;;;2.79;100.00
11114;BME280;5610;52.154;9.198;2024-02-28T07:27:28;101297.88;;;2.80;100.00
11114;BME280;5610;52.154;9.198;2024-02-28T07:30:14;101303.88;;;2.87;100.00
11114;BME280;5610;52.154;9.198;2024-02-28T07:32:59;101305.47;;;2.95;100.00
11114;BME280;5610;52.154;9.198;2024-02-28T07:35:44;101304.31;;;3.10;100.00
11114;BME280;5610;52.154;9.198;2024-02-28T07:38:31;101305.81;;;3.22;100.00
11114;BME280;5610;52.154;9.198;2024-02-28T07:41:17;101311.69;;;3.35;100.00
11114;BME280;5610;52.154;9.198;2024-02-28T07:44:02;101321.00;;;3.51;100.00
11114;BME280;5610;52.154;9.198;2024-02-28T07:46:47;101316.41;;;3.61;100.00
11114;BME280;5610;52.154;9.198;2024-02-28T07:49:34;101321.56;;;3.67;100.00
11114;BME280;5610;52.154;9.198;2024-02-28T07:52:19;101313.97;;;3.90;100.00
11114;BME280;5610;52.154;9.198;2024-02-28T07:55:06;101318.66;;;4.16;100.00
11114;BME280;5610;52.154;9.198;2024-02-28T07:57:52;101320.72;;;4.39;100.00
11114;BME280;5610;52.154;9.198;2024-02-28T08:00:37;101322.00;;;4.57;100.00
11114;BME280;5610;52.154;9.198;2024-02-28T08:03:23;101318.22;;;4.67;100.00
11114;BME280;5610;52.154;9.198;2024-02-28T08:06:07;101328.44;;;4.81;100.00
11114;BME280;5610;52.154;9.198;2024-02-28T08:08:53;101329.13;;;4.87;100.00
11114;BME280;5610;52.154;9.198;2024-02-28T08:11:40;101337.16;;;4.83;100.00
11114;BME280;5610;52.154;9.198;2024-02-28T08:14:26;101341.47;;;4.85;100.00
11114;BME280;5610;52.154;9.198;2024-02-28T08:17:12;101341.41;;;4.88;100.00
11114;BME280;5610;52.154;9.198;2024-02-28T08:19:58;101336.91;;;4.92;100.00
11114;BME280;5610;52.154;9.198;2024-02-28T08:22:43;101333.41;;;4.91;100.00
11114;BME280;5610;52.154;9.198;2024-02-28T08:25:28;101327.34;;;4.88;100.00
11114;BME280;5610;52.154;9.198;2024-02-28T08:28:14;101324.88;;;4.82;100.00
11114;BME280;5610;52.154;9.198;2024-02-28T08:31:00;101334.56;;;4.81;100.00
11114;BME280;5610;52.154;9.198;2024-02-28T08:33:45;101328.25;;;4.87;100.00
11114;BME280;5610;52.154;9.198;2024-02-28T08:36:32;101331.66;;;4.90;100.00
11114;BME280;5610;52.154;9.198;2024-02-28T08:39:17;101332.28;;;5.00;100.00
11114;BME280;5610;52.154;9.198;2024-02-28T08:42:03;101343.47;;;5.10;100.00
11114;BME280;5610;52.154;9.198;2024-02-28T08:44:50;101345.63;;;5.27;100.00
11114;BME280;5610;52.154;9.198;2024-02-28T08:47:35;101352.25;;;5.41;100.00
11114;BME280;5610;52.154;9.198;2024-02-28T08:50:20;101350.22;;;5.51;100.00
11114;BME280;5610;52.154;9.198;2024-02-28T08:53:05;101348.28;;;5.56;100.00
11114;BME280;5610;52.154;9.198;2024-02-28T08:55:50;101352.47;;;5.65;100.00
11114;BME280;5610;52.154;9.198;2024-02-28T08:58:35;101352.41;;;5.66;100.00
11114;BME280;5610;52.154;9.198;2024-02-28T09:01:23;101354.19;;;5.66;100.00
11114;BME280;5610;52.154;9.198;2024-02-28T09:04:08;101364.78;;;5.66;100.00
11114;BME280;5610;52.154;9.198;2024-02-28T09:06:53;101368.31;;;5.65;100.00
11114;BME280;5610;52.154;9.198;2024-02-28T09:09:41;101367.25;;;5.70;100.00
11114;BME280;5610;52.154;9.198;2024-02-28T09:12:27;101369.00;;;5.71;100.00
11114;BME280;5610;52.154;9.198;2024-02-28T09:15:12;101370.59;;;5.77;100.00
11114;BME280;5610;52.154;9.198;2024-02-28T09:17:59;101371.31;;;5.82;100.00
11114;BME280;5610;52.154;9.198;2024-02-28T09:20:44;101366.91;;;5.83;100.00
11114;BME280;5610;52.154;9.198;2024-02-28T09:23:29;101372.88;;;5.89;100.00
11114;BME280;5610;52.154;9.198;2024-02-28T09:26:15;101363.13;;;5.91;100.00
11114;BME280;5610;52.154;9.198;2024-02-28T09:29:00;101363.78;;;5.99;100.00
11114;BME280;5610;52.154;9.198;2024-02-28T09:31:45;101360.03;;;6.07;100.00
11114;BME280;5610;52.154;9.198;2024-02-28T09:34:32;101358.00;;;6.15;100.00
11114;BME280;5610;52.154;9.198;2024-02-28T09:37:17;101370.06;;;6.23;100.00
11114;BME280;5610;52.154;9.198;2024-02-28T09:40:09;101364.34;;;6.37;100.00
11114;BME280;5610;52.154;9.198;2024-02-28T09:43:00;101377.31;;;6.45;100.00
11114;BME280;5610;52.154;9.198;2024-02-28T09:45:46;101378.75;;;6.28;100.00
11114;BME280;5610;52.154;9.198;2024-02-28T09:48:31;101383.00;;;6.04;100.00
11114;BME280;5610;52.154;9.198;2024-02-28T09:51:19;101380.91;;;5.86;100.00
11114;BME280;5610;52.154;9.198;2024-02-28T09:54:08;101392.81;;;5.71;100.00
11114;BME280;5610;52.154;9.198;2024-02-28T09:56:53;101393.50;;;6.08;100.00
11114;BME280;5610;52.154;9.198;2024-02-28T09:59:40;101398.03;;;6.32;100.00
11114;BME280;5610;52.154;9.198;2024-02-28T10:02:26;101390.97;;;6.59;100.00
11114;BME280;5610;52.154;9.198;2024-02-28T10:05:13;101383.53;;;6.70;100.00
11114;BME280;5610;52.154;9.198;2024-02-28T10:08:00;101375.69;;;6.67;100.00
11114;BME280;5610;52.154;9.198;2024-02-28T10:10:46;101380.03;;;6.70;100.00
11114;BME280;5610;52.154;9.198;2024-02-28T10:13:32;101385.56;;;6.88;100.00
11114;BME280;5610;52.154;9.198;2024-02-28T10:16:17;101387.78;;;7.01;100.00
11114;BME280;5610;52.154;9.198;2024-02-28T10:19:02;101383.59;;;7.19;100.00
11114;BME280;5610;52.154;9.198;2024-02-28T10:21:47;101384.25;;;7.25;100.00
11114;BME280;5610;52.154;9.198;2024-02-28T10:24:34;101383.66;;;7.42;100.00
11114;BME280;5610;52.154;9.198;2024-02-28T10:27:21;101380.94;;;7.43;100.00
11114;BME280;5610;52.154;9.198;2024-02-28T10:30:07;101391.94;;;7.33;100.00
11114;BME280;5610;52.154;9.198;2024-02-28T10:32:52;101386.59;;;7.34;100.00
11114;BME280;5610;52.154;9.198;2024-02-28T10:35:37;101383.88;;;7.36;100.00
11114;BME280;5610;52.154;9.198;2024-02-28T10:38:24;101389.13;;;7.61;100.00
11114;BME280;5610;52.154;9.198;2024-02-28T10:41:13;101385.97;;;7.51;100.00
11114;BME280;5610;52.154;9.198;2024-02-28T10:44:00;101390.97;;;7.59;100.00
11114;BME280;5610;52.154;9.198;2024-02-28T10:46:49;101390.75;;;7.65;100.00
11114;BME280;5610;52.154;9.198;2024-02-28T10:49:34;101388.34;;;7.82;100.00
11114;BME280;5610;52.154;9.198;2024-02-28T10:52:21;101390.22;;;8.02;100.00
11114;BME280;5610;52.154;9.198;2024-02-28T10:55:08;101394.19;;;8.14;100.00
11114;BME280;5610;52.154;9.198;2024-02-28T10:57:59;101384.91;;;8.24;100.00
11114;BME280;5610;52.154;9.198;2024-02-28T11:00:46;101385.44;;;8.34;100.00
11114;BME280;5610;52.154;9.198;2024-02-28T11:03:32;101382.34;;;8.44;100.00
11114;BME280;5610;52.154;9.198;2024-02-28T11:06:18;101384.84;;;8.49;100.00
11114;BME280;5610;52.154;9.198;2024-02-28T11:09:05;101381.28;;;8.70;100.00
11114;BME280;5610;52.154;9.198;2024-02-28T11:11:50;101387.47;;;8.91;100.00
11114;BME280;5610;52.154;9.198;2024-02-28T11:14:37;101378.66;;;9.11;100.00
11114;BME280;5610;52.154;9.198;2024-02-28T11:17:26;101367.59;;;9.41;100.00
11114;BME280;5610;52.154;9.198;2024-02-28T11:20:12;101369.88;;;9.87;100.00
11114;BME280;5610;52.154;9.198;2024-02-28T11:22:57;101366.22;;;10.45;100.00
11114;BME280;5610;52.154;9.198;2024-02-28T11:25:43;101369.97;;;11.27;100.00
11114;BME280;5610;52.154;9.198;2024-02-28T11:28:28;101367.78;;;12.32;98.37
11114;BME280;5610;52.154;9.198;2024-02-28T11:31:15;101364.38;;;14.06;81.94
11114;BME280;5610;52.154;9.198;2024-02-28T11:34:00;101363.28;;;16.99;62.39
11114;BME280;5610;52.154;9.198;2024-02-28T11:36:47;101351.13;;;20.36;50.87
11114;BME280;5610;52.154;9.198;2024-02-28T11:39:33;101357.91;;;21.83;45.34
11114;BME280;5610;52.154;9.198;2024-02-28T11:42:18;101358.03;;;21.64;44.64
11114;BME280;5610;52.154;9.198;2024-02-28T11:45:04;101352.81;;;21.14;45.28
11114;BME280;5610;52.154;9.198;2024-02-28T11:47:51;101353.13;;;22.86;42.40
11114;BME280;5610;52.154;9.198;2024-02-28T11:50:37;101347.47;;;25.64;38.54
11114;BME280;5610;52.154;9.198;2024-02-28T11:53:24;101341.97;;;26.50;36.60
11114;BME280;5610;52.154;9.198;2024-02-28T11:56:10;101350.31;;;25.23;37.76
11114;BME280;5610;52.154;9.198;2024-02-28T11:58:58;101341.16;;;27.10;35.45
11114;BME280;5610;52.154;9.198;2024-02-28T12:01:43;101342.94;;;26.80;35.36
11114;BME280;5610;52.154;9.198;2024-02-28T12:04:32;101327.28;;;27.27;34.55
11114;BME280;5610;52.154;9.198;2024-02-28T12:07:17;101321.81;;;29.98;32.29
11114;BME280;5610;52.154;9.198;2024-02-28T12:10:05;101313.06;;;33.88;28.31
11114;BME280;5610;52.154;9.198;2024-02-28T12:12:52;101305.53;;;34.97;26.99
11114;BME280;5610;52.154;9.198;2024-02-28T12:15:39;101306.00;;;35.29;26.67
11114;BME280;5610;52.154;9.198;2024-02-28T12:18:26;101299.31;;;36.46;25.34
11114;BME280;5610;52.154;9.198;2024-02-28T12:21:13;101298.44;;;37.07;24.51
11114;BME280;5610;52.154;9.198;2024-02-28T12:23:58;101299.00;;;37.70;23.55
11114;BME280;5610;52.154;9.198;2024-02-28T12:26:43;101288.50;;;37.94;23.24
11114;BME280;5610;52.154;9.198;2024-02-28T12:29:29;101283.44;;;36.92;23.86
11114;BME280;5610;52.154;9.198;2024-02-28T12:32:15;101273.28;;;37.19;23.87
11114;BME280;5610;52.154;9.198;2024-02-28T12:35:01;101275.53;;;38.05;22.79
11114;BME280;5610;52.154;9.198;2024-02-28T12:37:49;101275.06;;;37.86;23.04
11114;BME280;5610;52.154;9.198;2024-02-28T12:40:35;101265.63;;;38.14;22.38
11114;BME280;5610;52.154;9.198;2024-02-28T12:43:20;101253.41;;;38.20;22.32
11114;BME280;5610;52.154;9.198;2024-02-28T12:46:05;101256.03;;;39.33;22.30
11114;BME280;5610;52.154;9.198;2024-02-28T12:48:51;101245.19;;;40.55;22.35
11114;BME280;5610;52.154;9.198;2024-02-28T12:51:38;101235.66;;;40.11;22.29
11114;BME280;5610;52.154;9.198;2024-02-28T12:54:24;101237.00;;;39.20;22.37
11114;BME280;5610;52.154;9.198;2024-02-28T12:57:10;101234.97;;;39.68;22.29
11114;BME280;5610;52.154;9.198;2024-02-28T12:59:57;101234.81;;;38.90;22.90
11114;BME280;5610;52.154;9.198;2024-02-28T13:02:44;101234.28;;;37.75;23.50
11114;BME280;5610;52.154;9.198;2024-02-28T13:05:31;101232.47;;;37.63;23.24
11114;BME280;5610;52.154;9.198;2024-02-28T13:08:16;101231.38;;;37.86;23.38
11114;BME280;5610;52.154;9.198;2024-02-28T13:11:03;101226.13;;;36.85;23.77
11114;BME280;5610;52.154;9.198;2024-02-28T13:13:49;101222.69;;;35.99;24.84
11114;BME280;5610;52.154;9.198;2024-02-28T13:16:35;101215.84;;;35.50;24.69
11114;BME280;5610;52.154;9.198;2024-02-28T13:19:20;101216.63;;;34.52;25.59
11114;BME280;5610;52.154;9.198;2024-02-28T13:22:05;101216.16;;;35.02;25.24
11114;BME280;5610;52.154;9.198;2024-02-28T13:24:51;101214.03;;;34.27;25.66
11114;BME280;5610;52.154;9.198;2024-02-28T13:27:37;101203.41;;;34.54;25.55
11114;BME280;5610;52.154;9.198;2024-02-28T13:30:23;101207.22;;;33.99;25.71
11114;BME280;5610;52.154;9.198;2024-02-28T13:33:08;101200.97;;;33.92;25.91
11114;BME280;5610;52.154;9.198;2024-02-28T13:35:53;101202.63;;;33.45;26.23
11114;BME280;5610;52.154;9.198;2024-02-28T13:38:39;101189.25;;;32.05;27.57
11114;BME280;5610;52.154;9.198;2024-02-28T13:41:24;101191.91;;;31.42;27.94
11114;BME280;5610;52.154;9.198;2024-02-28T13:44:11;101186.34;;;30.64;28.59
11114;BME280;5610;52.154;9.198;2024-02-28T13:46:56;101183.25;;;29.66;29.95
11114;BME280;5610;52.154;9.198;2024-02-28T13:49:41;101179.44;;;29.54;29.98
11114;BME280;5610;52.154;9.198;2024-02-28T13:52:26;101180.63;;;29.45;30.00
11114;BME280;5610;52.154;9.198;2024-02-28T13:55:12;101189.78;;;29.17;30.61
11114;BME280;5610;52.154;9.198;2024-02-28T13:57:57;101177.69;;;27.78;31.71
11114;BME280;5610;52.154;9.198;2024-02-28T14:00:44;101177.28;;;26.71;32.18
11114;BME280;5610;52.154;9.198;2024-02-28T14:03:29;101181.47;;;25.67;33.71
11114;BME280;5610;52.154;9.198;2024-02-28T14:06:15;101183.19;;;25.68;34.51
11114;BME280;5610;52.154;9.198;2024-02-28T14:09:00;101173.91;;;25.07;34.79
11114;BME280;5610;52.154;9.198;2024-02-28T14:11:45;101178.44;;;24.59;36.16
11114;BME280;5610;52.154;9.198;2024-02-28T14:14:30;101176.03;;;23.33;37.93
11114;BME280;5610;52.154;9.198;2024-02-28T14:17:17;101175.59;;;21.98;39.72
11114;BME280;5610;52.154;9.198;2024-02-28T14:20:03;101175.09;;;20.84;42.22
11114;BME280;5610;52.154;9.198;2024-02-28T14:22:48;101183.19;;;19.89;44.04
11114;BME280;5610;52.154;9.198;2024-02-28T14:25:34;101187.00;;;18.86;46.45
11114;BME280;5610;52.154;9.198;2024-02-28T14:28:19;101182.44;;;17.71;48.73
11114;BME280;5610;52.154;9.198;2024-02-28T14:31:05;101188.53;;;16.85;49.99
11114;BME280;5610;52.154;9.198;2024-02-28T14:33:51;101196.47;;;16.29;52.13
11114;BME280;5610;52.154;9.198;2024-02-28T14:36:38;101192.03;;;15.69;55.08